sensor_id;sensor_type;location;lat;lon;timestamp;P1;durP1;ratioP1;P2;durP2;ratioP2
7767;SDS011;3928;42.626;23.382;2023-07-22T00:00:50;10.80;;;5.22;;
7767;SDS011;3928;42.626;23.382;2023-07-22T00:03:16;10.82;;;5.93;;
7767;SDS011;3928;42.626;23.382;2023-07-22T00:05:43;12.15;;;5.57;;
7767;SDS011;3928;42.626;23.382;2023-07-22T00:08:10;14.73;;;5.97;;
7767;SDS011;3928;42.626;23.382;2023-07-22T00:10:41;8.38;;;5.88;;
7767;SDS011;3928;42.626;23.382;2023-07-22T00:13:08;8.13;;;5.50;;
7767;SDS011;3928;42.626;23.382;2023-07-22T00:15:35;8.98;;;5.97;;
7767;SDS011;3928;42.626;23.382;2023-07-22T00:18:02;15.20;;;6.80;;
7767;SDS011;3928;42.626;23.382;2023-07-22T00:20:29;10.88;;;6.40;;
7767;SDS011;3928;42.626;23.382;2023-07-22T00:22:55;12.10;;;6.68;;
7767;SDS011;3928;42.626;23.382;2023-07-22T00:25:22;13.88;;;7.00;;
7767;SDS011;3928;42.626;23.382;2023-07-22T00:27:51;14.88;;;6.55;;
7767;SDS011;3928;42.626;23.382;2023-07-22T00:30:17;11.55;;;6.43;;
7767;SDS011;3928;42.626;23.382;2023-07-22T00:32:44;13.50;;;6.75;;
7767;SDS011;3928;42.626;23.382;2023-07-22T00:35:11;14.35;;;6.72;;
7767;SDS011;3928;42.626;23.382;2023-07-22T00:37:39;13.52;;;6.35;;
7767;SDS011;3928;42.626;23.382;2023-07-22T00:40:06;16.33;;;6.85;;
7767;SDS011;3928;42.626;23.382;2023-07-22T00:42:37;12.02;;;6.45;;
7767;SDS011;3928;42.626;23.382;2023-07-22T00:45:06;13.13;;;6.57;;
7767;SDS011;3928;42.626;23.382;2023-07-22T00:47:34;13.90;;;7.38;;
7767;SDS011;3928;42.626;23.382;2023-07-22T00:50:00;15.13;;;6.53;;
7767;SDS011;3928;42.626;23.382;2023-07-22T00:52:28;10.80;;;6.63;;
7767;SDS011;3928;42.626;23.382;2023-07-22T00:54:55;11.00;;;6.30;;
7767;SDS011;3928;42.626;23.382;2023-07-22T00:57:22;12.63;;;6.78;;
7767;SDS011;3928;42.626;23.382;2023-07-22T00:59:49;12.93;;;6.57;;
7767;SDS011;3928;42.626;23.382;2023-07-22T01:02:17;12.77;;;6.55;;
7767;SDS011;3928;42.626;23.382;2023-07-22T01:04:44;12.07;;;6.60;;
7767;SDS011;3928;42.626;23.382;2023-07-22T01:07:12;14.38;;;7.05;;
7767;SDS011;3928;42.626;23.382;2023-07-22T01:09:40;13.63;;;7.15;;
7767;SDS011;3928;42.626;23.382;2023-07-22T01:12:08;7.85;;;6.13;;
7767;SDS011;3928;42.626;23.382;2023-07-22T01:14:36;10.40;;;5.57;;
7767;SDS011;3928;42.626;23.382;2023-07-22T01:17:04;9.38;;;6.13;;
7767;SDS011;3928;42.626;23.382;2023-07-22T01:19:33;7.32;;;5.97;;
7767;SDS011;3928;42.626;23.382;2023-07-22T01:22:01;8.35;;;5.55;;
7767;SDS011;3928;42.626;23.382;2023-07-22T01:24:31;8.00;;;5.82;;
7767;SDS011;3928;42.626;23.382;2023-07-22T01:26:58;8.40;;;5.47;;
7767;SDS011;3928;42.626;23.382;2023-07-22T01:29:24;9.75;;;5.65;;
7767;SDS011;3928;42.626;23.382;2023-07-22T01:31:52;9.70;;;6.28;;
7767;SDS011;3928;42.626;23.382;2023-07-22T01:34:20;8.30;;;5.50;;
7767;SDS011;3928;42.626;23.382;2023-07-22T01:36:49;8.93;;;5.93;;
7767;SDS011;3928;42.626;23.382;2023-07-22T01:39:17;9.30;;;5.53;;
7767;SDS011;3928;42.626;23.382;2023-07-22T01:41:46;7.78;;;5.25;;
7767;SDS011;3928;42.626;23.382;2023-07-22T01:44:13;11.38;;;5.53;;
7767;SDS011;3928;42.626;23.382;2023-07-22T01:46:40;7.82;;;6.20;;
7767;SDS011;3928;42.626;23.382;2023-07-22T01:49:09;8.55;;;6.47;;
7767;SDS011;3928;42.626;23.382;2023-07-22T01:51:37;9.55;;;5.90;;
7767;SDS011;3928;42.626;23.382;2023-07-22T01:54:05;8.35;;;5.63;;
7767;SDS011;3928;42.626;23.382;2023-07-22T01:56:34;10.20;;;6.43;;
7767;SDS011;3928;42.626;23.382;2023-07-22T01:59:02;10.23;;;5.88;;
7767;SDS011;3928;42.626;23.382;2023-07-22T02:01:29;8.38;;;5.82;;
7767;SDS011;3928;42.626;23.382;2023-07-22T02:03:56;9.77;;;6.05;;
7767;SDS011;3928;42.626;23.382;2023-07-22T02:06:23;16.30;;;7.20;;
7767;SDS011;3928;42.626;23.382;2023-07-22T02:08:50;8.77;;;6.00;;
7767;SDS011;3928;42.626;23.382;2023-07-22T02:11:17;9.43;;;5.75;;
7767;SDS011;3928;42.626;23.382;2023-07-22T02:13:43;13.82;;;5.88;;
7767;SDS011;3928;42.626;23.382;2023-07-22T02:16:11;7.93;;;5.88;;
7767;SDS011;3928;42.626;23.382;2023-07-22T02:18:38;7.68;;;5.93;;
7767;SDS011;3928;42.626;23.382;2023-07-22T02:21:05;10.15;;;5.75;;
7767;SDS011;3928;42.626;23.382;2023-07-22T02:23:32;8.75;;;6.25;;
7767;SDS011;3928;42.626;23.382;2023-07-22T02:25:59;8.63;;;6.05;;
7767;SDS011;3928;42.626;23.382;2023-07-22T02:28:26;11.80;;;6.10;;
7767;SDS011;3928;42.626;23.382;2023-07-22T02:30:53;10.85;;;5.90;;
7767;SDS011;3928;42.626;23.382;2023-07-22T02:33:21;10.32;;;6.20;;
7767;SDS011;3928;42.626;23.382;2023-07-22T02:35:48;7.63;;;6.10;;
7767;SDS011;3928;42.626;23.382;2023-07-22T02:38:15;11.23;;;5.57;;
7767;SDS011;3928;42.626;23.382;2023-07-22T02:40:42;7.80;;;5.38;;
7767;SDS011;3928;42.626;23.382;2023-07-22T02:43:09;8.57;;;6.00;;
7767;SDS011;3928;42.626;23.382;2023-07-22T02:45:36;9.68;;;6.50;;
7767;SDS011;3928;42.626;23.382;2023-07-22T02:48:03;10.95;;;6.05;;
7767;SDS011;3928;42.626;23.382;2023-07-22T02:50:31;9.07;;;6.18;;
7767;SDS011;3928;42.626;23.382;2023-07-22T02:52:58;10.50;;;5.95;;
7767;SDS011;3928;42.626;23.382;2023-07-22T02:55:25;12.00;;;7.75;;
7767;SDS011;3928;42.626;23.382;2023-07-22T02:57:52;9.70;;;6.32;;
7767;SDS011;3928;42.626;23.382;2023-07-22T03:00:19;13.32;;;7.07;;
7767;SDS011;3928;42.626;23.382;2023-07-22T03:02:48;7.63;;;6.30;;
7767;SDS011;3928;42.626;23.382;2023-07-22T03:05:16;11.75;;;6.43;;
7767;SDS011;3928;42.626;23.382;2023-07-22T03:07:44;8.60;;;5.70;;
7767;SDS011;3928;42.626;23.382;2023-07-22T03:10:11;11.77;;;6.70;;
7767;SDS011;3928;42.626;23.382;2023-07-22T03:12:38;8.73;;;6.15;;
7767;SDS011;3928;42.626;23.382;2023-07-22T03:15:05;13.73;;;6.50;;
7767;SDS011;3928;42.626;23.382;2023-07-22T03:17:33;9.95;;;6.93;;
7767;SDS011;3928;42.626;23.382;2023-07-22T03:20:01;12.15;;;6.35;;
7767;SDS011;3928;42.626;23.382;2023-07-22T03:22:30;10.15;;;6.32;;
7767;SDS011;3928;42.626;23.382;2023-07-22T03:24:58;9.82;;;6.35;;
7767;SDS011;3928;42.626;23.382;2023-07-22T03:27:25;12.63;;;7.28;;
7767;SDS011;3928;42.626;23.382;2023-07-22T03:29:52;8.00;;;5.95;;
7767;SDS011;3928;42.626;23.382;2023-07-22T03:32:19;8.93;;;6.32;;
7767;SDS011;3928;42.626;23.382;2023-07-22T03:34:46;8.77;;;6.18;;
7767;SDS011;3928;42.626;23.382;2023-07-22T03:37:12;13.00;;;6.55;;
7767;SDS011;3928;42.626;23.382;2023-07-22T03:39:39;10.55;;;6.55;;
7767;SDS011;3928;42.626;23.382;2023-07-22T03:42:08;9.20;;;6.00;;
7767;SDS011;3928;42.626;23.382;2023-07-22T03:44:34;10.48;;;6.55;;
7767;SDS011;3928;42.626;23.382;2023-07-22T03:47:01;14.75;;;7.00;;
7767;SDS011;3928;42.626;23.382;2023-07-22T03:49:28;13.02;;;7.05;;
7767;SDS011;3928;42.626;23.382;2023-07-22T03:51:55;8.23;;;6.25;;
7767;SDS011;3928;42.626;23.382;2023-07-22T03:54:21;18.30;;;7.88;;
7767;SDS011;3928;42.626;23.382;2023-07-22T03:56:48;10.85;;;6.90;;
7767;SDS011;3928;42.626;23.382;2023-07-22T03:59:16;12.52;;;7.88;;
7767;SDS011;3928;42.626;23.382;2023-07-22T04:01:43;13.15;;;7.53;;
7767;SDS011;3928;42.626;23.382;2023-07-22T04:04:11;12.27;;;7.22;;
7767;SDS011;3928;42.626;23.382;2023-07-22T04:06:38;13.52;;;6.80;;
7767;SDS011;3928;42.626;23.382;2023-07-22T04:09:05;12.35;;;7.53;;
7767;SDS011;3928;42.626;23.382;2023-07-22T04:11:33;11.75;;;7.65;;
7767;SDS011;3928;42.626;23.382;2023-07-22T04:14:00;10.55;;;6.97;;
7767;SDS011;3928;42.626;23.382;2023-07-22T04:16:28;12.25;;;6.88;;
7767;SDS011;3928;42.626;23.382;2023-07-22T04:18:56;8.85;;;6.50;;
7767;SDS011;3928;42.626;23.382;2023-07-22T04:21:23;11.63;;;6.60;;
7767;SDS011;3928;42.626;23.382;2023-07-22T04:23:49;8.43;;;6.65;;
7767;SDS011;3928;42.626;23.382;2023-07-22T04:26:16;16.58;;;7.65;;
7767;SDS011;3928;42.626;23.382;2023-07-22T04:28:43;15.88;;;7.47;;
7767;SDS011;3928;42.626;23.382;2023-07-22T04:31:10;13.05;;;7.78;;
7767;SDS011;3928;42.626;23.382;2023-07-22T04:33:38;15.07;;;7.38;;
7767;SDS011;3928;42.626;23.382;2023-07-22T04:36:06;8.95;;;7.25;;
7767;SDS011;3928;42.626;23.382;2023-07-22T04:38:33;11.75;;;8.35;;
7767;SDS011;3928;42.626;23.382;2023-07-22T04:41:02;12.45;;;8.00;;
7767;SDS011;3928;42.626;23.382;2023-07-22T04:43:30;13.32;;;7.70;;
7767;SDS011;3928;42.626;23.382;2023-07-22T04:45:57;13.48;;;8.13;;
7767;SDS011;3928;42.626;23.382;2023-07-22T04:48:24;10.38;;;7.55;;
7767;SDS011;3928;42.626;23.382;2023-07-22T04:50:53;12.88;;;7.32;;
7767;SDS011;3928;42.626;23.382;2023-07-22T04:53:20;15.15;;;7.88;;
7767;SDS011;3928;42.626;23.382;2023-07-22T04:55:47;12.38;;;7.82;;
7767;SDS011;3928;42.626;23.382;2023-07-22T04:58:14;15.00;;;7.32;;
7767;SDS011;3928;42.626;23.382;2023-07-22T05:00:40;12.85;;;7.03;;
7767;SDS011;3928;42.626;23.382;2023-07-22T05:03:08;13.85;;;7.53;;
7767;SDS011;3928;42.626;23.382;2023-07-22T05:05:35;14.77;;;7.53;;
7767;SDS011;3928;42.626;23.382;2023-07-22T05:08:03;18.35;;;7.47;;
7767;SDS011;3928;42.626;23.382;2023-07-22T05:10:32;14.15;;;7.30;;
7767;SDS011;3928;42.626;23.382;2023-07-22T05:12:59;12.43;;;7.57;;
7767;SDS011;3928;42.626;23.382;2023-07-22T05:15:25;14.65;;;7.00;;
7767;SDS011;3928;42.626;23.382;2023-07-22T05:17:52;13.43;;;6.90;;
7767;SDS011;3928;42.626;23.382;2023-07-22T05:20:19;25.13;;;19.23;;
7767;SDS011;3928;42.626;23.382;2023-07-22T05:22:46;18.38;;;8.73;;
7767;SDS011;3928;42.626;23.382;2023-07-22T05:25:14;10.90;;;7.60;;
7767;SDS011;3928;42.626;23.382;2023-07-22T05:27:41;14.38;;;8.02;;
7767;SDS011;3928;42.626;23.382;2023-07-22T05:30:07;14.73;;;8.20;;
7767;SDS011;3928;42.626;23.382;2023-07-22T05:32:35;11.95;;;7.80;;
7767;SDS011;3928;42.626;23.382;2023-07-22T05:35:02;10.45;;;7.13;;
7767;SDS011;3928;42.626;23.382;2023-07-22T05:37:30;10.82;;;7.32;;
7767;SDS011;3928;42.626;23.382;2023-07-22T05:39:58;13.52;;;8.05;;
7767;SDS011;3928;42.626;23.382;2023-07-22T05:42:26;12.93;;;7.90;;
7767;SDS011;3928;42.626;23.382;2023-07-22T05:44:54;17.77;;;9.07;;
7767;SDS011;3928;42.626;23.382;2023-07-22T05:47:21;21.00;;;13.00;;
7767;SDS011;3928;42.626;23.382;2023-07-22T05:49:48;20.63;;;15.55;;
7767;SDS011;3928;42.626;23.382;2023-07-22T05:52:15;13.57;;;8.13;;
7767;SDS011;3928;42.626;23.382;2023-07-22T05:54:42;14.73;;;8.43;;
7767;SDS011;3928;42.626;23.382;2023-07-22T05:57:09;17.67;;;9.95;;
7767;SDS011;3928;42.626;23.382;2023-07-22T05:59:37;13.75;;;8.80;;
7767;SDS011;3928;42.626;23.382;2023-07-22T06:02:05;14.93;;;8.10;;
7767;SDS011;3928;42.626;23.382;2023-07-22T06:04:32;14.57;;;8.45;;
7767;SDS011;3928;42.626;23.382;2023-07-22T06:06:59;11.48;;;7.45;;
7767;SDS011;3928;42.626;23.382;2023-07-22T06:09:26;9.18;;;7.45;;
7767;SDS011;3928;42.626;23.382;2023-07-22T06:11:53;11.35;;;8.10;;
7767;SDS011;3928;42.626;23.382;2023-07-22T06:14:19;12.57;;;7.75;;
7767;SDS011;3928;42.626;23.382;2023-07-22T06:16:48;15.63;;;7.88;;
7767;SDS011;3928;42.626;23.382;2023-07-22T06:19:14;11.50;;;7.32;;
7767;SDS011;3928;42.626;23.382;2023-07-22T06:21:43;16.20;;;8.10;;
7767;SDS011;3928;42.626;23.382;2023-07-22T06:24:09;16.20;;;8.43;;
7767;SDS011;3928;42.626;23.382;2023-07-22T06:26:36;10.32;;;7.53;;
7767;SDS011;3928;42.626;23.382;2023-07-22T06:29:03;11.40;;;7.60;;
7767;SDS011;3928;42.626;23.382;2023-07-22T06:31:30;15.43;;;8.05;;
7767;SDS011;3928;42.626;23.382;2023-07-22T06:33:58;14.65;;;7.85;;
7767;SDS011;3928;42.626;23.382;2023-07-22T06:36:25;17.77;;;10.32;;
7767;SDS011;3928;42.626;23.382;2023-07-22T06:38:52;9.35;;;7.80;;
7767;SDS011;3928;42.626;23.382;2023-07-22T06:41:19;25.75;;;11.38;;
7767;SDS011;3928;42.626;23.382;2023-07-22T06:43:49;16.83;;;8.90;;
7767;SDS011;3928;42.626;23.382;2023-07-22T06:46:15;14.80;;;10.00;;
7767;SDS011;3928;42.626;23.382;2023-07-22T06:48:42;20.27;;;10.23;;
7767;SDS011;3928;42.626;23.382;2023-07-22T06:51:10;16.73;;;8.93;;
7767;SDS011;3928;42.626;23.382;2023-07-22T06:53:37;21.33;;;9.23;;
7767;SDS011;3928;42.626;23.382;2023-07-22T06:56:04;14.77;;;8.57;;
7767;SDS011;3928;42.626;23.382;2023-07-22T06:58:31;15.18;;;9.07;;
7767;SDS011;3928;42.626;23.382;2023-07-22T07:19:59;15.60;;;9.82;;
7767;SDS011;3928;42.626;23.382;2023-07-22T07:22:26;18.55;;;9.23;;
7767;SDS011;3928;42.626;23.382;2023-07-22T07:24:53;15.25;;;9.82;;
7767;SDS011;3928;42.626;23.382;2023-07-22T07:27:19;16.95;;;9.07;;
7767;SDS011;3928;42.626;23.382;2023-07-22T07:29:46;22.13;;;9.63;;
7767;SDS011;3928;42.626;23.382;2023-07-22T07:32:13;16.42;;;9.82;;
7767;SDS011;3928;42.626;23.382;2023-07-22T07:34:40;15.98;;;9.95;;
7767;SDS011;3928;42.626;23.382;2023-07-22T07:37:08;13.20;;;8.95;;
7767;SDS011;3928;42.626;23.382;2023-07-22T07:39:35;14.85;;;9.52;;
7767;SDS011;3928;42.626;23.382;2023-07-22T07:42:02;15.07;;;8.63;;
7767;SDS011;3928;42.626;23.382;2023-07-22T07:44:30;11.27;;;9.07;;
7767;SDS011;3928;42.626;23.382;2023-07-22T07:46:56;11.70;;;9.00;;
7767;SDS011;3928;42.626;23.382;2023-07-22T07:49:23;16.67;;;9.13;;
7767;SDS011;3928;42.626;23.382;2023-07-22T07:51:50;13.60;;;8.80;;
7767;SDS011;3928;42.626;23.382;2023-07-22T07:54:18;14.95;;;9.88;;
7767;SDS011;3928;42.626;23.382;2023-07-22T07:56:45;13.73;;;8.93;;
7767;SDS011;3928;42.626;23.382;2023-07-22T07:59:12;18.02;;;9.55;;
7767;SDS011;3928;42.626;23.382;2023-07-22T08:01:38;13.07;;;8.82;;
7767;SDS011;3928;42.626;23.382;2023-07-22T08:04:06;12.20;;;8.57;;
7767;SDS011;3928;42.626;23.382;2023-07-22T08:06:33;13.57;;;9.90;;
7767;SDS011;3928;42.626;23.382;2023-07-22T08:09:02;16.90;;;9.18;;
7767;SDS011;3928;42.626;23.382;2023-07-22T08:11:31;14.35;;;9.48;;
7767;SDS011;3928;42.626;23.382;2023-07-22T08:13:58;12.20;;;9.02;;
7767;SDS011;3928;42.626;23.382;2023-07-22T08:16:25;16.10;;;9.30;;
7767;SDS011;3928;42.626;23.382;2023-07-22T08:18:53;15.88;;;9.50;;
7767;SDS011;3928;42.626;23.382;2023-07-22T08:21:20;15.35;;;9.63;;
7767;SDS011;3928;42.626;23.382;2023-07-22T08:23:47;14.57;;;9.20;;
7767;SDS011;3928;42.626;23.382;2023-07-22T08:26:13;19.88;;;9.32;;
7767;SDS011;3928;42.626;23.382;2023-07-22T08:28:44;11.73;;;9.05;;
7767;SDS011;3928;42.626;23.382;2023-07-22T08:31:11;13.35;;;8.93;;
7767;SDS011;3928;42.626;23.382;2023-07-22T08:33:38;18.88;;;8.88;;
7767;SDS011;3928;42.626;23.382;2023-07-22T08:36:05;15.27;;;8.48;;
7767;SDS011;3928;42.626;23.382;2023-07-22T08:38:32;15.18;;;8.88;;
7767;SDS011;3928;42.626;23.382;2023-07-22T08:40:59;15.32;;;8.80;;
7767;SDS011;3928;42.626;23.382;2023-07-22T08:43:26;15.68;;;9.18;;
7767;SDS011;3928;42.626;23.382;2023-07-22T08:45:57;10.15;;;8.63;;
7767;SDS011;3928;42.626;23.382;2023-07-22T08:48:26;15.82;;;8.77;;
7767;SDS011;3928;42.626;23.382;2023-07-22T08:50:59;16.77;;;10.45;;
7767;SDS011;3928;42.626;23.382;2023-07-22T08:53:29;19.70;;;9.38;;
7767;SDS011;3928;42.626;23.382;2023-07-22T08:55:58;11.95;;;8.80;;
7767;SDS011;3928;42.626;23.382;2023-07-22T08:58:25;17.13;;;8.68;;
7767;SDS011;3928;42.626;23.382;2023-07-22T09:00:53;13.23;;;8.63;;
7767;SDS011;3928;42.626;23.382;2023-07-22T09:03:22;14.27;;;8.32;;
7767;SDS011;3928;42.626;23.382;2023-07-22T09:05:50;16.40;;;8.57;;
7767;SDS011;3928;42.626;23.382;2023-07-22T09:08:18;12.32;;;8.85;;
7767;SDS011;3928;42.626;23.382;2023-07-22T09:10:44;13.73;;;8.25;;
7767;SDS011;3928;42.626;23.382;2023-07-22T09:13:12;20.05;;;9.25;;
7767;SDS011;3928;42.626;23.382;2023-07-22T09:15:40;16.25;;;8.80;;
7767;SDS011;3928;42.626;23.382;2023-07-22T09:18:07;18.10;;;8.80;;
7767;SDS011;3928;42.626;23.382;2023-07-22T09:20:35;18.80;;;8.88;;
7767;SDS011;3928;42.626;23.382;2023-07-22T09:23:02;16.25;;;9.13;;
7767;SDS011;3928;42.626;23.382;2023-07-22T09:25:29;14.57;;;8.77;;
7767;SDS011;3928;42.626;23.382;2023-07-22T09:27:58;14.60;;;8.38;;
7767;SDS011;3928;42.626;23.382;2023-07-22T09:30:26;14.27;;;8.93;;
7767;SDS011;3928;42.626;23.382;2023-07-22T09:32:54;16.50;;;9.10;;
7767;SDS011;3928;42.626;23.382;2023-07-22T09:35:22;15.35;;;7.82;;
7767;SDS011;3928;42.626;23.382;2023-07-22T09:37:52;12.98;;;8.15;;
7767;SDS011;3928;42.626;23.382;2023-07-22T09:40:20;14.85;;;8.18;;
7767;SDS011;3928;42.626;23.382;2023-07-22T09:42:49;17.85;;;9.13;;
7767;SDS011;3928;42.626;23.382;2023-07-22T09:45:17;18.88;;;9.32;;
7767;SDS011;3928;42.626;23.382;2023-07-22T09:47:45;20.77;;;8.75;;
7767;SDS011;3928;42.626;23.382;2023-07-22T09:50:14;17.00;;;8.35;;
7767;SDS011;3928;42.626;23.382;2023-07-22T09:52:44;12.68;;;8.25;;
7767;SDS011;3928;42.626;23.382;2023-07-22T09:55:14;17.95;;;8.35;;
7767;SDS011;3928;42.626;23.382;2023-07-22T09:57:43;15.65;;;7.57;;
7767;SDS011;3928;42.626;23.382;2023-07-22T10:00:11;14.20;;;8.40;;
7767;SDS011;3928;42.626;23.382;2023-07-22T10:02:39;13.02;;;6.95;;
7767;SDS011;3928;42.626;23.382;2023-07-22T10:05:08;17.83;;;8.80;;
7767;SDS011;3928;42.626;23.382;2023-07-22T10:07:38;17.58;;;7.82;;
7767;SDS011;3928;42.626;23.382;2023-07-22T10:10:10;16.77;;;8.90;;
7767;SDS011;3928;42.626;23.382;2023-07-22T10:12:39;18.75;;;9.25;;
7767;SDS011;3928;42.626;23.382;2023-07-22T10:15:07;17.58;;;8.38;;
7767;SDS011;3928;42.626;23.382;2023-07-22T10:17:35;20.88;;;8.90;;
7767;SDS011;3928;42.626;23.382;2023-07-22T10:20:03;15.70;;;8.90;;
7767;SDS011;3928;42.626;23.382;2023-07-22T10:22:33;18.48;;;8.70;;
7767;SDS011;3928;42.626;23.382;2023-07-22T10:25:02;22.88;;;8.30;;
7767;SDS011;3928;42.626;23.382;2023-07-22T10:27:32;18.50;;;8.57;;
7767;SDS011;3928;42.626;23.382;2023-07-22T10:30:01;20.30;;;8.88;;
7767;SDS011;3928;42.626;23.382;2023-07-22T10:32:32;14.25;;;8.18;;
7767;SDS011;3928;42.626;23.382;2023-07-22T10:35:00;26.25;;;8.60;;
7767;SDS011;3928;42.626;23.382;2023-07-22T10:37:29;21.30;;;8.57;;
7767;SDS011;3928;42.626;23.382;2023-07-22T10:39:58;14.82;;;8.25;;
7767;SDS011;3928;42.626;23.382;2023-07-22T10:42:26;18.48;;;9.18;;
7767;SDS011;3928;42.626;23.382;2023-07-22T10:44:53;16.98;;;8.38;;
7767;SDS011;3928;42.626;23.382;2023-07-22T10:47:33;24.98;;;9.48;;
7767;SDS011;3928;42.626;23.382;2023-07-22T10:50:07;18.08;;;8.30;;
7767;SDS011;3928;42.626;23.382;2023-07-22T10:52:38;23.42;;;7.90;;
7767;SDS011;3928;42.626;23.382;2023-07-22T10:55:15;19.63;;;8.75;;
7767;SDS011;3928;42.626;23.382;2023-07-22T10:57:49;19.27;;;8.15;;
7767;SDS011;3928;42.626;23.382;2023-07-22T11:00:18;18.95;;;7.18;;
7767;SDS011;3928;42.626;23.382;2023-07-22T11:02:48;19.00;;;8.48;;
7767;SDS011;3928;42.626;23.382;2023-07-22T11:11:03;23.23;;;6.97;;
7767;SDS011;3928;42.626;23.382;2023-07-22T11:13:34;25.98;;;7.80;;
7767;SDS011;3928;42.626;23.382;2023-07-22T11:16:04;21.88;;;6.65;;
7767;SDS011;3928;42.626;23.382;2023-07-22T11:18:37;25.98;;;7.60;;
7767;SDS011;3928;42.626;23.382;2023-07-22T11:21:07;25.27;;;7.65;;
7767;SDS011;3928;42.626;23.382;2023-07-22T11:23:35;25.08;;;7.35;;
7767;SDS011;3928;42.626;23.382;2023-07-22T11:26:02;24.13;;;7.65;;
7767;SDS011;3928;42.626;23.382;2023-07-22T11:28:30;26.08;;;6.55;;
7767;SDS011;3928;42.626;23.382;2023-07-22T11:30:57;27.67;;;7.25;;
7767;SDS011;3928;42.626;23.382;2023-07-22T11:33:26;33.42;;;7.28;;
7767;SDS011;3928;42.626;23.382;2023-07-22T11:36:05;29.83;;;7.03;;
7767;SDS011;3928;42.626;23.382;2023-07-22T11:38:32;23.00;;;7.20;;
7767;SDS011;3928;42.626;23.382;2023-07-22T11:40:58;24.45;;;7.25;;
7767;SDS011;3928;42.626;23.382;2023-07-22T11:43:26;25.92;;;7.28;;
7767;SDS011;3928;42.626;23.382;2023-07-22T11:45:53;28.60;;;7.50;;
7767;SDS011;3928;42.626;23.382;2023-07-22T11:48:20;30.63;;;7.32;;
7767;SDS011;3928;42.626;23.382;2023-07-22T11:50:47;24.80;;;7.00;;
7767;SDS011;3928;42.626;23.382;2023-07-22T11:53:16;29.27;;;7.18;;
7767;SDS011;3928;42.626;23.382;2023-07-22T11:55:42;21.33;;;7.03;;
7767;SDS011;3928;42.626;23.382;2023-07-22T11:58:10;21.85;;;6.80;;
7767;SDS011;3928;42.626;23.382;2023-07-22T12:00:37;30.10;;;7.50;;
7767;SDS011;3928;42.626;23.382;2023-07-22T12:03:08;25.17;;;6.88;;
7767;SDS011;3928;42.626;23.382;2023-07-22T12:05:35;21.13;;;6.50;;
7767;SDS011;3928;42.626;23.382;2023-07-22T12:08:03;24.27;;;7.05;;
7767;SDS011;3928;42.626;23.382;2023-07-22T12:10:33;28.15;;;7.60;;
7767;SDS011;3928;42.626;23.382;2023-07-22T12:13:00;24.83;;;6.93;;
7767;SDS011;3928;42.626;23.382;2023-07-22T12:15:27;24.45;;;7.80;;
7767;SDS011;3928;42.626;23.382;2023-07-22T12:17:54;33.28;;;7.50;;
7767;SDS011;3928;42.626;23.382;2023-07-22T12:20:23;29.50;;;7.30;;
7767;SDS011;3928;42.626;23.382;2023-07-22T12:22:50;19.25;;;6.45;;
7767;SDS011;3928;42.626;23.382;2023-07-22T12:25:17;22.30;;;6.72;;
7767;SDS011;3928;42.626;23.382;2023-07-22T12:27:46;26.75;;;7.07;;
7767;SDS011;3928;42.626;23.382;2023-07-22T12:30:12;20.17;;;6.28;;
7767;SDS011;3928;42.626;23.382;2023-07-22T12:32:40;24.90;;;7.18;;
7767;SDS011;3928;42.626;23.382;2023-07-22T12:35:07;26.30;;;7.05;;
7767;SDS011;3928;42.626;23.382;2023-07-22T12:37:34;27.10;;;7.63;;
7767;SDS011;3928;42.626;23.382;2023-07-22T12:40:01;27.52;;;7.03;;
7767;SDS011;3928;42.626;23.382;2023-07-22T12:42:33;20.33;;;6.28;;
7767;SDS011;3928;42.626;23.382;2023-07-22T12:45:01;26.30;;;7.63;;
7767;SDS011;3928;42.626;23.382;2023-07-22T12:47:28;20.85;;;6.63;;
7767;SDS011;3928;42.626;23.382;2023-07-22T12:49:55;21.52;;;7.18;;
7767;SDS011;3928;42.626;23.382;2023-07-22T12:52:21;22.27;;;7.47;;
7767;SDS011;3928;42.626;23.382;2023-07-22T12:54:48;24.48;;;6.93;;
7767;SDS011;3928;42.626;23.382;2023-07-22T12:57:15;29.95;;;7.40;;
7767;SDS011;3928;42.626;23.382;2023-07-22T12:59:42;27.13;;;6.88;;
7767;SDS011;3928;42.626;23.382;2023-07-22T13:02:10;23.17;;;7.15;;
7767;SDS011;3928;42.626;23.382;2023-07-22T13:04:37;30.13;;;7.63;;
7767;SDS011;3928;42.626;23.382;2023-07-22T13:07:04;23.45;;;6.95;;
7767;SDS011;3928;42.626;23.382;2023-07-22T13:09:32;26.42;;;7.07;;
7767;SDS011;3928;42.626;23.382;2023-07-22T13:11:59;25.52;;;7.28;;
7767;SDS011;3928;42.626;23.382;2023-07-22T13:14:26;22.42;;;6.35;;
7767;SDS011;3928;42.626;23.382;2023-07-22T13:16:53;18.77;;;6.55;;
7767;SDS011;3928;42.626;23.382;2023-07-22T13:19:21;21.52;;;6.78;;
7767;SDS011;3928;42.626;23.382;2023-07-22T13:21:48;23.30;;;6.47;;
7767;SDS011;3928;42.626;23.382;2023-07-22T13:24:15;25.20;;;6.78;;
7767;SDS011;3928;42.626;23.382;2023-07-22T13:26:42;26.33;;;7.20;;
7767;SDS011;3928;42.626;23.382;2023-07-22T13:29:08;21.48;;;6.72;;
7767;SDS011;3928;42.626;23.382;2023-07-22T13:31:35;31.55;;;8.00;;
7767;SDS011;3928;42.626;23.382;2023-07-22T13:34:02;27.00;;;6.80;;
7767;SDS011;3928;42.626;23.382;2023-07-22T13:36:30;22.98;;;6.65;;
7767;SDS011;3928;42.626;23.382;2023-07-22T13:38:57;25.40;;;6.93;;
7767;SDS011;3928;42.626;23.382;2023-07-22T13:41:23;25.80;;;7.15;;
7767;SDS011;3928;42.626;23.382;2023-07-22T13:43:50;24.77;;;7.60;;
7767;SDS011;3928;42.626;23.382;2023-07-22T13:46:17;26.55;;;7.03;;
7767;SDS011;3928;42.626;23.382;2023-07-22T13:48:44;28.15;;;7.05;;
7767;SDS011;3928;42.626;23.382;2023-07-22T13:51:11;27.65;;;7.25;;
7767;SDS011;3928;42.626;23.382;2023-07-22T13:53:39;20.67;;;7.07;;
7767;SDS011;3928;42.626;23.382;2023-07-22T13:56:05;23.45;;;7.18;;
7767;SDS011;3928;42.626;23.382;2023-07-22T13:58:32;24.15;;;7.00;;
7767;SDS011;3928;42.626;23.382;2023-07-22T14:00:59;28.48;;;7.50;;
7767;SDS011;3928;42.626;23.382;2023-07-22T14:03:26;28.58;;;7.75;;
7767;SDS011;3928;42.626;23.382;2023-07-22T14:05:53;26.77;;;6.72;;
7767;SDS011;3928;42.626;23.382;2023-07-22T14:08:19;24.65;;;6.75;;
7767;SDS011;3928;42.626;23.382;2023-07-22T14:10:48;30.45;;;7.50;;
7767;SDS011;3928;42.626;23.382;2023-07-22T14:13:14;22.15;;;7.15;;
7767;SDS011;3928;42.626;23.382;2023-07-22T14:15:41;35.92;;;7.35;;
7767;SDS011;3928;42.626;23.382;2023-07-22T14:18:08;25.73;;;6.25;;
7767;SDS011;3928;42.626;23.382;2023-07-22T14:20:35;25.05;;;6.50;;
7767;SDS011;3928;42.626;23.382;2023-07-22T14:23:02;29.05;;;6.72;;
7767;SDS011;3928;42.626;23.382;2023-07-22T14:25:29;25.73;;;7.43;;
7767;SDS011;3928;42.626;23.382;2023-07-22T14:27:57;24.88;;;7.47;;
7767;SDS011;3928;42.626;23.382;2023-07-22T14:30:24;27.02;;;6.43;;
7767;SDS011;3928;42.626;23.382;2023-07-22T14:32:51;32.33;;;7.45;;
7767;SDS011;3928;42.626;23.382;2023-07-22T14:35:18;28.77;;;7.13;;
7767;SDS011;3928;42.626;23.382;2023-07-22T14:37:45;20.73;;;6.07;;
7767;SDS011;3928;42.626;23.382;2023-07-22T14:40:12;28.77;;;7.28;;
7767;SDS011;3928;42.626;23.382;2023-07-22T14:42:39;29.80;;;7.78;;
7767;SDS011;3928;42.626;23.382;2023-07-22T14:45:08;20.08;;;5.93;;
7767;SDS011;3928;42.626;23.382;2023-07-22T14:47:35;28.95;;;7.70;;
7767;SDS011;3928;42.626;23.382;2023-07-22T14:50:02;25.42;;;6.78;;
7767;SDS011;3928;42.626;23.382;2023-07-22T14:52:29;29.05;;;7.05;;
7767;SDS011;3928;42.626;23.382;2023-07-22T14:54:56;24.63;;;7.07;;
7767;SDS011;3928;42.626;23.382;2023-07-22T14:57:22;24.23;;;7.28;;
7767;SDS011;3928;42.626;23.382;2023-07-22T14:59:51;23.80;;;6.95;;
7767;SDS011;3928;42.626;23.382;2023-07-22T15:02:19;25.17;;;6.57;;
7767;SDS011;3928;42.626;23.382;2023-07-22T15:04:46;24.92;;;7.22;;
7767;SDS011;3928;42.626;23.382;2023-07-22T15:07:13;22.10;;;6.30;;
7767;SDS011;3928;42.626;23.382;2023-07-22T15:09:40;21.52;;;7.43;;
7767;SDS011;3928;42.626;23.382;2023-07-22T15:12:07;21.25;;;7.53;;
7767;SDS011;3928;42.626;23.382;2023-07-22T15:14:35;29.40;;;8.15;;